sensor_id;sensor_type;location;lat;lon;timestamp;pressure;altitude;pressure_sealevel;temperature;humidity
19096;BME280;9680;52.520;13.332;2023-04-29T00:01:19;100699.97;;;13.19;67.10
19096;BME280;9680;52.520;13.332;2023-04-29T00:03:46;100690.44;;;13.18;67.26
19096;BME280;9680;52.520;13.332;2023-04-29T00:06:12;100683.63;;;13.16;67.21
19096;BME280;9680;52.520;13.332;2023-04-29T00:08:39;100677.47;;;13.17;67.55
19096;BME280;9680;52.520;13.332;2023-04-29T00:11:06;100673.97;;;13.16;67.41
19096;BME280;9680;52.520;13.332;2023-04-29T00:13:33;100663.66;;;13.13;67.40
19096;BME280;9680;52.520;13.332;2023-04-29T00:16:01;100669.75;;;13.14;67.34
19096;BME280;9680;52.520;13.332;2023-04-29T00:18:28;100674.22;;;13.11;67.72
19096;BME280;9680;52.520;13.332;2023-04-29T00:20:55;100675.06;;;13.12;67.51
19096;BME280;9680;52.520;13.332;2023-04-29T00:23:21;100669.16;;;13.08;67.70
19096;BME280;9680;52.520;13.332;2023-04-29T00:25:48;100673.66;;;13.05;67.67
19096;BME280;9680;52.520;13.332;2023-04-29T00:28:17;100667.81;;;13.00;67.69
19096;BME280;9680;52.520;13.332;2023-04-29T00:30:44;100662.69;;;12.98;67.81
19096;BME280;9680;52.520;13.332;2023-04-29T00:33:12;100662.69;;;12.98;67.90
19096;BME280;9680;52.520;13.332;2023-04-29T00:35:39;100662.91;;;12.93;68.10
19096;BME280;9680;52.520;13.332;2023-04-29T00:38:05;100673.56;;;12.89;68.36
19096;BME280;9680;52.520;13.332;2023-04-29T00:40:32;100670.13;;;12.88;68.45
19096;BME280;9680;52.520;13.332;2023-04-29T00:43:00;100671.03;;;12.87;68.33
19096;BME280;9680;52.520;13.332;2023-04-29T00:45:27;100671.97;;;12.86;68.41
19096;BME280;9680;52.520;13.332;2023-04-29T00:47:53;100677.97;;;12.88;68.74
19096;BME280;9680;52.520;13.332;2023-04-29T00:50:23;100683.25;;;12.87;68.83
19096;BME280;9680;52.520;13.332;2023-04-29T00:52:50;100679.56;;;12.91;68.39
19096;BME280;9680;52.520;13.332;2023-04-29T00:55:18;100675.06;;;12.94;68.80
19096;BME280;9680;52.520;13.332;2023-04-29T00:57:45;100680.28;;;12.94;68.62
19096;BME280;9680;52.520;13.332;2023-04-29T01:00:14;100683.66;;;12.96;68.78
19096;BME280;9680;52.520;13.332;2023-04-29T01:02:41;100666.91;;;13.01;68.24
19096;BME280;9680;52.520;13.332;2023-04-29T01:05:09;100656.22;;;13.05;68.46
19096;BME280;9680;52.520;13.332;2023-04-29T01:07:44;100645.78;;;13.05;68.57
19096;BME280;9680;52.520;13.332;2023-04-29T01:10:14;100634.53;;;13.03;68.71
19096;BME280;9680;52.520;13.332;2023-04-29T01:12:49;100651.53;;;12.94;69.36
19096;BME280;9680;52.520;13.332;2023-04-29T01:15:21;100662.50;;;12.84;69.96
19096;BME280;9680;52.520;13.332;2023-04-29T01:17:52;100670.09;;;12.71;71.14
19096;BME280;9680;52.520;13.332;2023-04-29T01:20:21;100675.78;;;12.61;72.20
19096;BME280;9680;52.520;13.332;2023-04-29T01:22:50;100670.13;;;12.51;73.14
19096;BME280;9680;52.520;13.332;2023-04-29T01:25:18;100670.41;;;12.45;74.37
19096;BME280;9680;52.520;13.332;2023-04-29T01:28:06;100673.22;;;12.41;74.70
19096;BME280;9680;52.520;13.332;2023-04-29T01:30:41;100673.19;;;12.42;75.29
19096;BME280;9680;52.520;13.332;2023-04-29T01:33:16;100663.66;;;12.41;75.84
19096;BME280;9680;52.520;13.332;2023-04-29T01:35:57;100651.34;;;12.43;76.32
19096;BME280;9680;52.520;13.332;2023-04-29T01:38:33;100652.97;;;12.46;76.08
19096;BME280;9680;52.520;13.332;2023-04-29T01:41:09;100655.88;;;12.40;76.25
19096;BME280;9680;52.520;13.332;2023-04-29T01:43:37;100655.22;;;12.34;77.12
19096;BME280;9680;52.520;13.332;2023-04-29T01:46:20;100651.84;;;12.32;77.45
19096;BME280;9680;52.520;13.332;2023-04-29T01:48:51;100657.22;;;12.29;77.76
19096;BME280;9680;52.520;13.332;2023-04-29T01:51:18;100664.63;;;12.19;78.08
19096;BME280;9680;52.520;13.332;2023-04-29T01:53:45;100655.19;;;12.17;78.73
19096;BME280;9680;52.520;13.332;2023-04-29T01:56:13;100657.00;;;12.15;79.14
19096;BME280;9680;52.520;13.332;2023-04-29T01:59:06;100651.06;;;12.11;79.54
19096;BME280;9680;52.520;13.332;2023-04-29T02:01:59;100660.81;;;12.07;79.76
19096;BME280;9680;52.520;13.332;2023-04-29T02:04:26;100655.66;;;12.06;80.11
19096;BME280;9680;52.520;13.332;2023-04-29T02:06:53;100653.03;;;12.06;80.28
19096;BME280;9680;52.520;13.332;2023-04-29T02:09:20;100654.75;;;12.07;80.75
19096;BME280;9680;52.520;13.332;2023-04-29T02:11:53;100655.50;;;12.09;80.90
19096;BME280;9680;52.520;13.332;2023-04-29T02:14:20;100648.69;;;12.06;81.33
19096;BME280;9680;52.520;13.332;2023-04-29T02:16:48;100655.50;;;12.09;81.31
19096;BME280;9680;52.520;13.332;2023-04-29T02:19:16;100650.94;;;12.14;81.31
19096;BME280;9680;52.520;13.332;2023-04-29T02:21:42;100645.69;;;12.14;81.61
19096;BME280;9680;52.520;13.332;2023-04-29T02:24:10;100638.59;;;12.18;81.70
19096;BME280;9680;52.520;13.332;2023-04-29T02:26:36;100634.91;;;12.22;81.29
19096;BME280;9680;52.520;13.332;2023-04-29T02:29:04;100634.28;;;12.17;81.40
19096;BME280;9680;52.520;13.332;2023-04-29T02:31:31;100631.88;;;12.12;81.89
19096;BME280;9680;52.520;13.332;2023-04-29T02:33:58;100638.94;;;12.10;82.12
19096;BME280;9680;52.520;13.332;2023-04-29T02:36:25;100638.88;;;12.12;82.39
19096;BME280;9680;52.520;13.332;2023-04-29T02:38:53;100639.72;;;12.12;82.67
19096;BME280;9680;52.520;13.332;2023-04-29T02:41:20;100648.25;;;12.16;82.52
19096;BME280;9680;52.520;13.332;2023-04-29T02:43:47;100639.50;;;12.17;82.74
19096;BME280;9680;52.520;13.332;2023-04-29T02:46:15;100637.72;;;12.17;82.73
19096;BME280;9680;52.520;13.332;2023-04-29T02:48:43;100634.13;;;12.20;82.77
19096;BME280;9680;52.520;13.332;2023-04-29T02:51:10;100630.63;;;12.21;82.65
19096;BME280;9680;52.520;13.332;2023-04-29T02:53:37;100634.06;;;12.21;82.81
19096;BME280;9680;52.520;13.332;2023-04-29T02:56:04;100638.31;;;12.24;83.08
19096;BME280;9680;52.520;13.332;2023-04-29T02:58:31;100627.13;;;12.20;83.27
19096;BME280;9680;52.520;13.332;2023-04-29T03:00:58;100634.28;;;12.17;83.30
19096;BME280;9680;52.520;13.332;2023-04-29T03:03:26;100631.72;;;12.15;83.76
19096;BME280;9680;52.520;13.332;2023-04-29T03:05:53;100631.59;;;12.18;83.98
19096;BME280;9680;52.520;13.332;2023-04-29T03:08:19;100630.66;;;12.19;83.95
19096;BME280;9680;52.520;13.332;2023-04-29T03:10:46;100632.50;;;12.17;83.92
19096;BME280;9680;52.520;13.332;2023-04-29T03:13:13;100634.06;;;12.21;83.98
19096;BME280;9680;52.520;13.332;2023-04-29T03:15:40;100629.59;;;12.23;83.84
19096;BME280;9680;52.520;13.332;2023-04-29T03:18:08;100629.69;;;12.22;84.28
19096;BME280;9680;52.520;13.332;2023-04-29T03:20:37;100625.31;;;12.22;84.30
19096;BME280;9680;52.520;13.332;2023-04-29T03:23:04;100628.78;;;12.23;84.19
19096;BME280;9680;52.520;13.332;2023-04-29T03:25:30;100622.53;;;12.26;84.31
19096;BME280;9680;52.520;13.332;2023-04-29T03:27:57;100622.44;;;12.29;84.46
19096;BME280;9680;52.520;13.332;2023-04-29T03:30:24;100621.50;;;12.30;83.97
19096;BME280;9680;52.520;13.332;2023-04-29T03:32:54;100624.81;;;12.33;84.23
19096;BME280;9680;52.520;13.332;2023-04-29T03:35:21;100616.81;;;12.36;84.09
19096;BME280;9680;52.520;13.332;2023-04-29T03:38:18;100620.31;;;12.37;84.19
19096;BME280;9680;52.520;13.332;2023-04-29T03:40:47;100621.28;;;12.34;84.45
19096;BME280;9680;52.520;13.332;2023-04-29T03:43:15;100619.59;;;12.33;84.51
19096;BME280;9680;52.520;13.332;2023-04-29T03:45:42;100616.78;;;12.38;84.69
19096;BME280;9680;52.520;13.332;2023-04-29T03:48:09;100621.84;;;12.41;84.27
19096;BME280;9680;52.520;13.332;2023-04-29T03:50:37;100618.31;;;12.42;84.52
19096;BME280;9680;52.520;13.332;2023-04-29T03:53:04;100621.91;;;12.40;84.57
19096;BME280;9680;52.520;13.332;2023-04-29T03:55:32;100620.06;;;12.42;84.61
19096;BME280;9680;52.520;13.332;2023-04-29T03:57:59;100620.00;;;12.43;84.66
19096;BME280;9680;52.520;13.332;2023-04-29T04:00:26;100621.56;;;12.47;85.01
19096;BME280;9680;52.520;13.332;2023-04-29T04:02:56;100620.69;;;12.47;84.92
19096;BME280;9680;52.520;13.332;2023-04-29T04:05:23;100631.13;;;12.47;84.98
19096;BME280;9680;52.520;13.332;2023-04-29T04:07:55;100632.78;;;12.49;85.07
19096;BME280;9680;52.520;13.332;2023-04-29T04:10:49;100626.69;;;12.49;85.38
19096;BME280;9680;52.520;13.332;2023-04-29T04:13:31;100629.16;;;12.52;85.03
19096;BME280;9680;52.520;13.332;2023-04-29T04:15:58;100629.09;;;12.53;85.39
19096;BME280;9680;52.520;13.332;2023-04-29T04:18:25;100639.41;;;12.57;85.44
19096;BME280;9680;52.520;13.332;2023-04-29T04:20:51;100637.56;;;12.59;85.33
19096;BME280;9680;52.520;13.332;2023-04-29T04:23:21;100638.13;;;12.65;85.59
19096;BME280;9680;52.520;13.332;2023-04-29T04:25:50;100633.50;;;12.71;85.66
19096;BME280;9680;52.520;13.332;2023-04-29T04:28:41;100638.66;;;12.72;85.44
19096;BME280;9680;52.520;13.332;2023-04-29T04:31:12;100634.97;;;12.76;85.43
19096;BME280;9680;52.520;13.332;2023-04-29T04:33:39;100639.22;;;12.79;85.49
19096;BME280;9680;52.520;13.332;2023-04-29T04:36:06;100640.81;;;12.81;85.49
19096;BME280;9680;52.520;13.332;2023-04-29T04:38:33;100631.13;;;12.84;85.30
19096;BME280;9680;52.520;13.332;2023-04-29T04:41:06;100643.41;;;12.81;85.49
19096;BME280;9680;52.520;13.332;2023-04-29T04:43:37;100640.13;;;12.78;85.38
19096;BME280;9680;52.520;13.332;2023-04-29T04:46:12;100639.13;;;12.80;85.56
19096;BME280;9680;52.520;13.332;2023-04-29T04:49:00;100631.28;;;12.80;85.69
19096;BME280;9680;52.520;13.332;2023-04-29T04:51:28;100638.97;;;12.84;86.15
19096;BME280;9680;52.520;13.332;2023-04-29T04:53:54;100638.97;;;12.84;86.21
19096;BME280;9680;52.520;13.332;2023-04-29T04:56:24;100634.50;;;12.86;86.06
19096;BME280;9680;52.520;13.332;2023-04-29T04:58:51;100640.50;;;12.88;86.05
19096;BME280;9680;52.520;13.332;2023-04-29T05:01:18;100642.28;;;12.87;86.17
19096;BME280;9680;52.520;13.332;2023-04-29T05:03:44;100644.75;;;12.90;86.36
19096;BME280;9680;52.520;13.332;2023-04-29T05:06:11;100646.59;;;12.88;86.24
19096;BME280;9680;52.520;13.332;2023-04-29T05:08:41;100650.81;;;12.91;86.84
19096;BME280;9680;52.520;13.332;2023-04-29T05:11:15;100642.97;;;12.91;86.71
19096;BME280;9680;52.520;13.332;2023-04-29T05:13:43;100642.13;;;12.90;87.07
19096;BME280;9680;52.520;13.332;2023-04-29T05:16:10;100645.66;;;12.89;87.48
19096;BME280;9680;52.520;13.332;2023-04-29T05:18:42;100649.13;;;12.90;87.55
19096;BME280;9680;52.520;13.332;2023-04-29T05:21:10;100650.81;;;12.91;87.88
19096;BME280;9680;52.520;13.332;2023-04-29T05:23:37;100655.91;;;12.94;88.09
19096;BME280;9680;52.520;13.332;2023-04-29T05:26:04;100648.06;;;12.94;87.96
19096;BME280;9680;52.520;13.332;2023-04-29T05:28:31;100649.81;;;12.93;88.20
19096;BME280;9680;52.520;13.332;2023-04-29T05:30:59;100654.22;;;12.93;88.03
19096;BME280;9680;52.520;13.332;2023-04-29T05:33:26;100657.59;;;12.95;88.41
19096;BME280;9680;52.520;13.332;2023-04-29T05:35:52;100661.91;;;12.96;88.72
19096;BME280;9680;52.520;13.332;2023-04-29T05:38:19;100660.22;;;12.95;88.72
19096;BME280;9680;52.520;13.332;2023-04-29T05:40:52;100664.69;;;12.93;88.95
19096;BME280;9680;52.520;13.332;2023-04-29T05:43:42;100664.75;;;12.91;88.96
19096;BME280;9680;52.520;13.332;2023-04-29T05:46:13;100661.97;;;12.94;89.02
19096;BME280;9680;52.520;13.332;2023-04-29T05:48:40;100664.59;;;12.94;89.18
19096;BME280;9680;52.520;13.332;2023-04-29T05:51:09;100665.34;;;12.96;89.90
19096;BME280;9680;52.520;13.332;2023-04-29T05:53:38;100663.31;;;13.03;89.87
19096;BME280;9680;52.520;13.332;2023-04-29T05:56:05;100670.22;;;13.04;89.94
19096;BME280;9680;52.520;13.332;2023-04-29T05:58:33;100672.53;;;13.10;89.99
19096;BME280;9680;52.520;13.332;2023-04-29T06:01:01;100670.59;;;13.14;89.69
19096;BME280;9680;52.520;13.332;2023-04-29T06:03:30;100669.47;;;13.20;89.54
19096;BME280;9680;52.520;13.332;2023-04-29T06:06:15;100670.28;;;13.20;89.63
19096;BME280;9680;52.520;13.332;2023-04-29T06:08:59;100677.22;;;13.21;89.79
19096;BME280;9680;52.520;13.332;2023-04-29T06:11:28;100680.59;;;13.23;89.19
19096;BME280;9680;52.520;13.332;2023-04-29T06:13:55;100683.22;;;13.23;89.60
19096;BME280;9680;52.520;13.332;2023-04-29T06:16:22;100684.84;;;13.26;89.84
19096;BME280;9680;52.520;13.332;2023-04-29T06:18:50;100688.38;;;13.25;89.84
19096;BME280;9680;52.520;13.332;2023-04-29T06:21:17;100685.53;;;13.30;89.61
19096;BME280;9680;52.520;13.332;2023-04-29T06:23:44;100683.84;;;13.29;89.75
19096;BME280;9680;52.520;13.332;2023-04-29T06:26:15;100689.31;;;13.24;89.79
19096;BME280;9680;52.520;13.332;2023-04-29T06:28:44;100692.13;;;13.19;89.78
19096;BME280;9680;52.520;13.332;2023-04-29T06:31:11;100695.34;;;13.07;89.26
19096;BME280;9680;52.520;13.332;2023-04-29T06:33:38;100696.75;;;12.96;90.61
19096;BME280;9680;52.520;13.332;2023-04-29T06:36:06;100699.44;;;12.95;90.83
19096;BME280;9680;52.520;13.332;2023-04-29T06:38:55;100707.91;;;13.00;91.56
19096;BME280;9680;52.520;13.332;2023-04-29T06:41:25;100709.66;;;13.00;90.88
19096;BME280;9680;52.520;13.332;2023-04-29T06:44:03;100710.66;;;12.97;90.96
19096;BME280;9680;52.520;13.332;2023-04-29T06:46:45;100715.97;;;12.95;90.81
19096;BME280;9680;52.520;13.332;2023-04-29T06:49:19;100719.59;;;12.93;91.11
19096;BME280;9680;52.520;13.332;2023-04-29T06:51:49;100721.50;;;12.89;91.14
19096;BME280;9680;52.520;13.332;2023-04-29T06:54:16;100725.72;;;12.92;91.10
19096;BME280;9680;52.520;13.332;2023-04-29T06:56:43;100720.28;;;12.96;91.38
19096;BME280;9680;52.520;13.332;2023-04-29T06:59:11;100729.81;;;12.98;90.76
19096;BME280;9680;52.520;13.332;2023-04-29T07:01:39;100742.09;;;12.95;90.54
19096;BME280;9680;52.520;13.332;2023-04-29T07:04:06;100736.97;;;12.94;90.48
19096;BME280;9680;52.520;13.332;2023-04-29T07:06:33;100734.47;;;12.91;90.18
19096;BME280;9680;52.520;13.332;2023-04-29T07:09:01;100730.53;;;12.82;89.78
19096;BME280;9680;52.520;13.332;2023-04-29T07:11:28;100744.88;;;12.73;90.28
19096;BME280;9680;52.520;13.332;2023-04-29T07:13:55;100742.38;;;12.72;90.27
19096;BME280;9680;52.520;13.332;2023-04-29T07:16:21;100751.19;;;12.69;90.77
19096;BME280;9680;52.520;13.332;2023-04-29T07:18:50;100758.34;;;12.65;90.62
19096;BME280;9680;52.520;13.332;2023-04-29T07:21:17;100751.75;;;12.57;90.89
19096;BME280;9680;52.520;13.332;2023-04-29T07:23:44;100758.38;;;12.45;91.04
19096;BME280;9680;52.520;13.332;2023-04-29T07:26:14;100765.25;;;12.47;90.89
19096;BME280;9680;52.520;13.332;2023-04-29T07:28:43;100768.84;;;12.45;90.92
19096;BME280;9680;52.520;13.332;2023-04-29T07:31:11;100765.59;;;12.40;90.42
19096;BME280;9680;52.520;13.332;2023-04-29T07:33:38;100777.31;;;12.31;90.36
19096;BME280;9680;52.520;13.332;2023-04-29T07:36:06;100776.59;;;12.27;90.51
19096;BME280;9680;52.520;13.332;2023-04-29T07:38:34;100780.97;;;12.27;90.22
19096;BME280;9680;52.520;13.332;2023-04-29T07:41:01;100789.13;;;12.19;90.44
19096;BME280;9680;52.520;13.332;2023-04-29T07:43:30;100795.28;;;12.18;91.21
19096;BME280;9680;52.520;13.332;2023-04-29T07:45:56;100795.47;;;12.13;91.57
19096;BME280;9680;52.520;13.332;2023-04-29T07:48:23;100798.06;;;12.13;91.82
19096;BME280;9680;52.520;13.332;2023-04-29T07:50:50;100802.47;;;12.13;91.73
19096;BME280;9680;52.520;13.332;2023-04-29T07:53:17;100807.81;;;12.09;91.72
19096;BME280;9680;52.520;13.332;2023-04-29T07:55:43;100814.31;;;11.99;91.85
19096;BME280;9680;52.520;13.332;2023-04-29T07:58:10;100811.91;;;11.94;92.45
19096;BME280;9680;52.520;13.332;2023-04-29T08:00:39;100821.69;;;11.89;92.91
19096;BME280;9680;52.520;13.332;2023-04-29T08:03:05;100829.38;;;11.92;93.10
19096;BME280;9680;52.520;13.332;2023-04-29T08:05:32;100833.50;;;11.98;93.08
19096;BME280;9680;52.520;13.332;2023-04-29T08:07:59;100833.41;;;12.01;92.53
19096;BME280;9680;52.520;13.332;2023-04-29T08:10:26;100845.66;;;11.99;92.36
19096;BME280;9680;52.520;13.332;2023-04-29T08:12:53;100848.94;;;12.04;92.00
19096;BME280;9680;52.520;13.332;2023-04-29T08:15:21;100851.59;;;12.03;91.71
19096;BME280;9680;52.520;13.332;2023-04-29T08:17:50;100860.59;;;11.95;91.25
19096;BME280;9680;52.520;13.332;2023-04-29T08:20:17;100864.25;;;11.91;91.68
19096;BME280;9680;52.520;13.332;2023-04-29T08:22:43;100866.06;;;11.89;90.70
19096;BME280;9680;52.520;13.332;2023-04-29T08:25:11;100873.16;;;11.86;90.70
19096;BME280;9680;52.520;13.332;2023-04-29T08:27:38;100873.94;;;11.88;90.75
19096;BME280;9680;52.520;13.332;2023-04-29T08:30:06;100883.34;;;11.92;90.62
19096;BME280;9680;52.520;13.332;2023-04-29T08:32:33;100889.31;;;11.95;90.10
19096;BME280;9680;52.520;13.332;2023-04-29T08:35:02;100888.47;;;11.95;90.01
19096;BME280;9680;52.520;13.332;2023-04-29T08:37:28;100889.31;;;11.95;89.55
19096;BME280;9680;52.520;13.332;2023-04-29T08:39:55;100896.47;;;11.90;89.81
19096;BME280;9680;52.520;13.332;2023-04-29T08:42:31;100903.41;;;11.91;89.60
19096;BME280;9680;52.520;13.332;2023-04-29T08:44:59;100910.19;;;11.95;89.40
19096;BME280;9680;52.520;13.332;2023-04-29T08:47:28;100907.44;;;11.99;89.12
19096;BME280;9680;52.520;13.332;2023-04-29T08:49:56;100905.88;;;11.94;89.33
19096;BME280;9680;52.520;13.332;2023-04-29T08:52:25;100915.34;;;11.97;89.42
19096;BME280;9680;52.520;13.332;2023-04-29T08:54:51;100915.13;;;12.03;88.80
19096;BME280;9680;52.520;13.332;2023-04-29T08:57:19;100923.00;;;12.02;88.34
19096;BME280;9680;52.520;13.332;2023-04-29T08:59:46;100930.94;;;11.99;88.14
19096;BME280;9680;52.520;13.332;2023-04-29T09:02:15;100932.09;;;11.91;87.83
19096;BME280;9680;52.520;13.332;2023-04-29T09:04:47;100943.59;;;11.87;88.36
19096;BME280;9680;52.520;13.332;2023-04-29T09:07:17;100941.16;;;11.83;88.25
19096;BME280;9680;52.520;13.332;2023-04-29T09:09:46;100951.47;;;11.86;88.43
19096;BME280;9680;52.520;13.332;2023-04-29T09:12:13;100958.38;;;11.87;88.30
19096;BME280;9680;52.520;13.332;2023-04-29T09:14:40;100958.38;;;11.87;87.85
19096;BME280;9680;52.520;13.332;2023-04-29T09:17:07;100963.13;;;11.77;87.86
19096;BME280;9680;52.520;13.332;2023-04-29T09:19:35;100960.53;;;11.77;88.22
19096;BME280;9680;52.520;13.332;2023-04-29T09:22:02;100965.66;;;11.78;88.04
19096;BME280;9680;52.520;13.332;2023-04-29T09:24:31;100972.44;;;11.84;88.42
19096;BME280;9680;52.520;13.332;2023-04-29T09:26:59;100970.59;;;11.86;87.97
19096;BME280;9680;52.520;13.332;2023-04-29T09:29:27;100968.25;;;11.80;87.40
19096;BME280;9680;52.520;13.332;2023-04-29T09:31:55;100992.81;;;11.74;87.07
19096;BME280;9680;52.520;13.332;2023-04-29T09:34:30;100978.38;;;11.65;87.52
19096;BME280;9680;52.520;13.332;2023-04-29T09:36:57;100982.59;;;11.68;87.30
19096;BME280;9680;52.520;13.332;2023-04-29T09:39:24;100981.81;;;11.66;87.05
19096;BME280;9680;52.520;13.332;2023-04-29T09:41:59;100998.16;;;11.71;87.24
19096;BME280;9680;52.520;13.332;2023-04-29T09:44:29;101005.84;;;11.74;87.41
19096;BME280;9680;52.520;13.332;2023-04-29T09:46:57;101007.44;;;11.78;87.09
19096;BME280;9680;52.520;13.332;2023-04-29T09:49:28;101008.22;;;11.80;86.83
19096;BME280;9680;52.520;13.332;2023-04-29T09:51:56;101018.38;;;11.88;86.58
19096;BME280;9680;52.520;13.332;2023-04-29T09:54:25;101021.19;;;12.06;86.95
19096;BME280;9680;52.520;13.332;2023-04-29T09:56:54;101017.56;;;12.10;84.36
19096;BME280;9680;52.520;13.332;2023-04-29T09:59:22;101026.50;;;12.04;84.61
19096;BME280;9680;52.520;13.332;2023-04-29T10:01:51;101027.47;;;12.02;84.20
19096;BME280;9680;52.520;13.332;2023-04-29T10:04:20;101032.00;;;12.19;84.22
19096;BME280;9680;52.520;13.332;2023-04-29T10:06:48;101033.84;;;12.17;83.25
19096;BME280;9680;52.520;13.332;2023-04-29T10:09:17;101031.28;;;12.15;83.95
19096;BME280;9680;52.520;13.332;2023-04-29T10:11:46;101048.06;;;12.09;83.63
19096;BME280;9680;52.520;13.332;2023-04-29T10:14:15;101051.88;;;12.01;83.85
19096;BME280;9680;52.520;13.332;2023-04-29T10:16:46;101048.63;;;11.94;83.71
19096;BME280;9680;52.520;13.332;2023-04-29T10:19:25;101052.34;;;11.87;84.40
19096;BME280;9680;52.520;13.332;2023-04-29T10:21:53;101053.94;;;11.91;84.23
19096;BME280;9680;52.520;13.332;2023-04-29T10:24:21;101052.94;;;11.95;83.96
19096;BME280;9680;52.520;13.332;2023-04-29T10:26:50;101059.91;;;11.94;83.60
19096;BME280;9680;52.520;13.332;2023-04-29T10:29:18;101058.63;;;12.06;83.63
19096;BME280;9680;52.520;13.332;2023-04-29T10:31:49;101060.31;;;12.30;83.87
19096;BME280;9680;52.520;13.332;2023-04-29T10:34:16;101065.47;;;12.53;82.06
19096;BME280;9680;52.520;13.332;2023-04-29T10:36:45;101070.44;;;12.60;81.10
19096;BME280;9680;52.520;13.332;2023-04-29T10:39:21;101068.72;;;12.59;80.46
19096;BME280;9680;52.520;13.332;2023-04-29T10:41:50;101071.94;;;12.65;80.80
19096;BME280;9680;52.520;13.332;2023-04-29T10:44:17;101072.88;;;12.64;80.45
19096;BME280;9680;52.520;13.332;2023-04-29T10:46:44;101076.69;;;12.56;79.92
19096;BME280;9680;52.520;13.332;2023-04-29T10:49:12;101080.66;;;12.44;80.71
19096;BME280;9680;52.520;13.332;2023-04-29T10:51:40;101075.53;;;12.41;79.70
19096;BME280;9680;52.520;13.332;2023-04-29T10:54:08;101091.78;;;12.27;79.95
19096;BME280;9680;52.520;13.332;2023-04-29T10:56:37;101086.13;;;12.37;80.92
19096;BME280;9680;52.520;13.332;2023-04-29T10:59:05;101082.53;;;12.83;80.27
19096;BME280;9680;52.520;13.332;2023-04-29T11:01:46;101085.41;;;13.39;78.16
19096;BME280;9680;52.520;13.332;2023-04-29T11:04:15;101088.94;;;13.78;75.74
19096;BME280;9680;52.520;13.332;2023-04-29T11:06:45;101088.84;;;13.79;74.76
19096;BME280;9680;52.520;13.332;2023-04-29T11:09:18;101083.75;;;13.57;74.16
19096;BME280;9680;52.520;13.332;2023-04-29T11:11:47;101092.78;;;13.50;74.46
19096;BME280;9680;52.520;13.332;2023-04-29T11:14:25;101091.88;;;13.51;74.46
19096;BME280;9680;52.520;13.332;2023-04-29T11:16:54;101086.25;;;13.60;73.78
19096;BME280;9680;52.520;13.332;2023-04-29T11:19:25;101097.84;;;13.74;72.67
19096;BME280;9680;52.520;13.332;2023-04-29T11:22:13;101100.44;;;14.31;73.57
19096;BME280;9680;52.520;13.332;2023-04-29T11:24:49;101096.38;;;14.80;71.46
19096;BME280;9680;52.520;13.332;2023-04-29T11:27:17;101102.22;;;14.85;68.78
19096;BME280;9680;52.520;13.332;2023-04-29T11:29:44;101105.22;;;14.77;68.61
19096;BME280;9680;52.520;13.332;2023-04-29T11:32:11;101109.81;;;14.54;67.57
19096;BME280;9680;52.520;13.332;2023-04-29T11:34:40;101107.34;;;14.51;68.55
19096;BME280;9680;52.520;13.332;2023-04-29T11:37:07;101114.31;;;14.70;68.25
19096;BME280;9680;52.520;13.332;2023-04-29T11:39:35;101116.28;;;14.65;67.44
19096;BME280;9680;52.520;13.332;2023-04-29T11:42:02;101124.44;;;14.41;67.35
19096;BME280;9680;52.520;13.332;2023-04-29T11:44:29;101123.34;;;14.27;67.37
19096;BME280;9680;52.520;13.332;2023-04-29T11:47:00;101120.13;;;14.21;67.91
19096;BME280;9680;52.520;13.332;2023-04-29T11:49:29;101123.19;;;14.31;68.31
19096;BME280;9680;52.520;13.332;2023-04-29T11:51:57;101128.88;;;14.58;68.01
19096;BME280;9680;52.520;13.332;2023-04-29T11:54:24;101129.91;;;14.73;67.08
19096;BME280;9680;52.520;13.332;2023-04-29T11:56:52;101124.94;;;14.67;66.43
19096;BME280;9680;52.520;13.332;2023-04-29T11:59:19;101134.78;;;14.62;67.06
19096;BME280;9680;52.520;13.332;2023-04-29T12:01:47;101142.84;;;14.76;67.44
19096;BME280;9680;52.520;13.332;2023-04-29T12:04:13;101140.47;;;14.72;66.61
19096;BME280;9680;52.520;13.332;2023-04-29T12:06:40;101150.53;;;14.62;66.86
19096;BME280;9680;52.520;13.332;2023-04-29T12:09:08;101151.13;;;14.49;67.46
19096;BME280;9680;52.520;13.332;2023-04-29T12:11:36;101150.31;;;14.30;67.43
19096;BME280;9680;52.520;13.332;2023-04-29T12:14:02;101148.38;;;14.14;68.36
19096;BME280;9680;52.520;13.332;2023-04-29T12:16:31;101143.50;;;14.06;68.65
19096;BME280;9680;52.520;13.332;2023-04-29T12:18:58;101165.16;;;13.91;69.44
19096;BME280;9680;52.520;13.332;2023-04-29T12:21:25;101168.69;;;13.71;70.15
19096;BME280;9680;52.520;13.332;2023-04-29T12:23:53;101161.59;;;13.73;70.45
19096;BME280;9680;52.520;13.332;2023-04-29T12:26:21;101165.84;;;13.75;70.76
19096;BME280;9680;52.520;13.332;2023-04-29T12:28:53;101162.13;;;14.00;70.62
19096;BME280;9680;52.520;13.332;2023-04-29T12:31:20;101162.88;;;14.40;70.00
19096;BME280;9680;52.520;13.332;2023-04-29T12:33:48;101163.69;;;14.79;68.22
19096;BME280;9680;52.520;13.332;2023-04-29T12:36:15;101169.91;;;14.96;67.15
19096;BME280;9680;52.520;13.332;2023-04-29T12:38:44;101166.25;;;14.81;66.65
19096;BME280;9680;52.520;13.332;2023-04-29T12:41:11;101176.19;;;14.74;66.98
19096;BME280;9680;52.520;13.332;2023-04-29T12:43:43;101167.31;;;14.77;66.58
19096;BME280;9680;52.520;13.332;2023-04-29T12:46:10;101170.72;;;14.79;66.46
19096;BME280;9680;52.520;13.332;2023-04-29T12:48:38;101178.13;;;14.88;65.83
19096;BME280;9680;52.520;13.332;2023-04-29T12:51:08;101183.78;;;14.98;64.76
19096;BME280;9680;52.520;13.332;2023-04-29T12:53:34;101175.81;;;15.17;64.27
19096;BME280;9680;52.520;13.332;2023-04-29T12:56:01;101169.84;;;15.49;63.69
19096;BME280;9680;52.520;13.332;2023-04-29T12:58:28;101184.56;;;15.69;62.50
19096;BME280;9680;52.520;13.332;2023-04-29T13:00:57;101180.06;;;15.89;62.17